Flugplatz Leer-Papenburg

METAR ETNT TAF ETMN
6 °C
°C
-
°C
32m
Edad
19:52:25
LT
18:52
UTC
0 ft

1.000

2.000

3.000

4.000

5.000

FEW 2.500
SCT 5.000
VFR
<?= Yii::t('app', 'Wind direction') ?> <?= Yii::t('app', 'of'); ?>
300°
08:18
Amanecer
71%
Humedad
Cizalladura del viento
Cerrado/Nieve
Alcance visual RWY
Estado de la RWY
Visibilidad vert.
Visibilidad mínima
CAVOK
Tendencia
Corrección
Informe especial
1016 hPa
QNH
METAR ETNT 301820Z 30014KT 9999 FEW025 SCT050 06/01 Q1016 BLACKBLU+
Nubes dispersas
9 kt
9 kt
19:00
MVFR
20 kt
20:00
MVFR
20 kt
21:00
MVFR
20 kt
22:00
MVFR
20 kt
23:00
MVFR
20 kt
00:00
MVFR
20 kt
01:00
VFR
15 kt
10 km+
Visibilidad
No
Cielo nuboso
14 kt
Viento
metar-taf.com/EDWF

Metar-Taf.com

Decodificador visual

Nosotros y terceros seguimos tu comportamiento en Internet en nuestro sitio web con cookies. Si continúas, asumimos que estás de acuerdo con nuestra Política de cookies.